createdAt,value
2022-09-14T00:01:26.323Z,80.73
2022-09-14T00:03:56.384Z,80.81
2022-09-14T00:06:23.613Z,80.93
2022-09-14T00:08:55.727Z,80.53
2022-09-14T00:11:24.878Z,80.77
2022-09-14T00:13:52.292Z,80.26
2022-09-14T00:16:40.808Z,80.30
2022-09-14T00:19:17.418Z,80.03
2022-09-14T00:21:44.500Z,80.00
2022-09-14T00:24:12.500Z,80.11
2022-09-14T00:26:39.502Z,80.21
2022-09-14T00:29:06.910Z,79.99
2022-09-14T00:31:36.879Z,80.20
2022-09-14T00:34:05.708Z,80.57
2022-09-14T00:36:34.346Z,80.08
2022-09-14T00:39:01.479Z,80.24
2022-09-14T00:41:32.232Z,79.94
2022-09-14T00:44:27.387Z,79.59
2022-09-14T00:46:57.311Z,79.88
2022-09-14T00:49:26.931Z,80.00
2022-09-14T00:52:18.158Z,79.39
2022-09-14T00:54:57.859Z,79.29
2022-09-14T00:57:27.835Z,79.54
2022-09-14T00:59:55.924Z,79.56
2022-09-14T01:02:25.981Z,79.57
2022-09-14T01:04:53.582Z,79.51
2022-09-14T01:07:40.247Z,79.39
2022-09-14T01:10:28.531Z,79.84
2022-09-14T01:13:20.109Z,79.88
2022-09-14T01:15:56.827Z,80.23
2022-09-14T01:19:10.125Z,79.89
2022-09-14T01:21:41.571Z,79.38
2022-09-14T01:24:17.410Z,79.56
2022-09-14T01:26:44.434Z,79.47
2022-09-14T01:29:17.091Z,79.66
2022-09-14T01:31:44.116Z,79.78
2022-09-14T01:34:25.810Z,78.97
2022-09-14T01:36:59.703Z,79.08
2022-09-14T01:39:30.458Z,79.19
2022-09-14T01:41:59.849Z,79.23
2022-09-14T01:44:34.461Z,80.17
2022-09-14T01:47:10.203Z,79.60
2022-09-14T01:49:37.101Z,80.16
2022-09-14T01:52:19.279Z,79.83
2022-09-14T01:54:57.193Z,80.09
2022-09-14T01:57:36.878Z,80.15
2022-09-14T02:00:09.053Z,79.75
2022-09-14T02:02:48.735Z,79.96
2022-09-14T02:05:28.946Z,80.47
2022-09-14T02:07:56.880Z,81.09
2022-09-14T02:10:24.828Z,80.56
2022-09-14T02:12:53.541Z,80.11
2022-09-14T02:15:20.957Z,81.33
2022-09-14T02:17:48.573Z,81.02
2022-09-14T02:20:27.338Z,80.88
2022-09-14T02:22:54.515Z,80.21
2022-09-14T02:25:21.769Z,80.84
2022-09-14T02:27:48.968Z,80.62
2022-09-14T02:30:17.415Z,81.27
2022-09-14T02:33:10.925Z,81.66
2022-09-14T02:35:56.105Z,81.44
2022-09-14T02:38:32.227Z,81.63
2022-09-14T02:41:05.186Z,81.86
2022-09-14T02:43:51.426Z,81.69
2022-09-14T02:46:27.448Z,81.27
2022-09-14T02:49:19.442Z,81.25
2022-09-14T02:52:15.899Z,81.15
2022-09-14T02:54:59.432Z,81.31
2022-09-14T02:57:27.033Z,81.94
2022-09-14T02:59:55.418Z,81.87
2022-09-14T03:02:23.098Z,81.51
2022-09-14T03:04:50.081Z,81.11
2022-09-14T03:07:16.988Z,80.77
2022-09-14T03:09:43.924Z,80.07
2022-09-14T03:12:10.882Z,80.28
2022-09-14T03:14:37.874Z,79.64
2022-09-14T03:17:05.031Z,80.06
2022-09-14T03:19:31.969Z,80.26
2022-09-14T03:21:58.950Z,79.91
2022-09-14T03:24:25.868Z,79.34
2022-09-14T03:26:52.870Z,79.17
2022-09-14T03:29:20.145Z,78.92
2022-09-14T03:31:47.207Z,78.22
2022-09-14T03:34:14.264Z,78.49
2022-09-14T03:36:41.226Z,79.16
2022-09-14T03:39:08.148Z,78.90
2022-09-14T03:41:35.083Z,79.03
2022-09-14T03:44:02.226Z,79.03
2022-09-14T03:46:29.360Z,78.69
2022-09-14T03:48:56.885Z,79.24
2022-09-14T03:51:24.075Z,79.21
2022-09-14T03:53:51.009Z,79.45
2022-09-14T03:56:20.487Z,78.80
2022-09-14T03:58:48.795Z,78.89
2022-09-14T04:01:21.292Z,78.73
2022-09-14T04:03:49.407Z,78.38
2022-09-14T04:06:17.586Z,78.73
2022-09-14T04:08:46.195Z,78.36
2022-09-14T04:11:19.432Z,78.85
2022-09-14T04:13:47.353Z,78.59
2022-09-14T04:16:15.907Z,78.83
2022-09-14T04:18:43.096Z,79.04
2022-09-14T04:21:18.867Z,78.90
2022-09-14T04:26:34.298Z,79.76
2022-09-14T04:29:01.379Z,79.88
2022-09-14T04:31:29.026Z,79.90
2022-09-14T04:33:57.465Z,79.69
2022-09-14T04:36:28.806Z,80.39
2022-09-14T04:39:00.951Z,80.26
2022-09-14T04:41:29.623Z,80.43
2022-09-14T04:43:57.766Z,80.41
2022-09-14T04:46:29.329Z,80.54
2022-09-14T04:48:56.341Z,80.07
2022-09-14T04:51:27.311Z,80.24
2022-09-14T04:53:56.818Z,80.16
2022-09-14T04:56:24.709Z,79.11
2022-09-14T04:58:54.636Z,79.63
2022-09-14T05:01:27.037Z,78.46
2022-09-14T05:03:55.028Z,79.57
2022-09-14T05:06:25.182Z,78.76
2022-09-14T05:08:53.355Z,78.75
2022-09-14T05:11:23.336Z,78.75
2022-09-14T05:13:50.991Z,78.37
2022-09-14T05:16:19.152Z,78.19
2022-09-14T05:18:46.674Z,79.00
2022-09-14T05:21:17.101Z,79.24
2022-09-14T05:23:45.050Z,79.02
2022-09-14T05:26:12.735Z,79.58
2022-09-14T05:28:40.022Z,79.44
2022-09-14T05:31:09.298Z,80.21
2022-09-14T05:33:36.518Z,79.51
2022-09-14T05:36:08.143Z,79.15
2022-09-14T05:38:37.554Z,79.33
2022-09-14T05:41:06.268Z,79.14
2022-09-14T05:43:33.744Z,79.27
2022-09-14T05:46:10.121Z,79.78
2022-09-14T05:48:38.811Z,79.89
2022-09-14T05:51:17.411Z,80.16
2022-09-14T05:53:49.799Z,79.75
2022-09-14T05:56:17.913Z,79.03
2022-09-14T05:58:46.171Z,78.83
2022-09-14T06:01:14.654Z,79.35
2022-09-14T06:03:42.728Z,78.90
2022-09-14T06:06:11.744Z,78.59
2022-09-14T06:08:38.909Z,79.16
2022-09-14T06:11:11.443Z,79.27
2022-09-14T06:13:38.993Z,79.64
2022-09-14T06:16:08.909Z,80.03
2022-09-14T06:18:37.576Z,79.92
2022-09-14T06:21:05.766Z,80.27
2022-09-14T06:23:33.462Z,79.93
2022-09-14T06:26:02.929Z,80.03
2022-09-14T06:28:30.667Z,79.89
2022-09-14T06:30:58.066Z,80.11
2022-09-14T06:33:25.645Z,80.11
2022-09-14T06:36:00.526Z,79.95
2022-09-14T06:38:28.447Z,80.25
2022-09-14T06:40:57.381Z,79.64
2022-09-14T06:43:25.334Z,79.84
2022-09-14T06:46:16.805Z,79.32
2022-09-14T06:48:48.041Z,79.08
2022-09-14T06:51:28.530Z,78.61
2022-09-14T06:53:57.153Z,77.76
2022-09-14T06:56:24.097Z,77.48
2022-09-14T06:58:52.506Z,77.37
2022-09-14T07:01:21.020Z,76.74
2022-09-14T07:03:48.653Z,76.32
2022-09-14T07:06:18.269Z,75.93
2022-09-14T07:08:45.617Z,75.19
2022-09-14T07:11:14.681Z,74.62
2022-09-14T07:13:41.780Z,74.73
2022-09-14T07:16:09.257Z,74.15
2022-09-14T07:18:36.922Z,73.98
2022-09-14T07:21:14.719Z,73.00
2022-09-14T07:23:44.293Z,73.26
2022-09-14T07:26:24.201Z,72.79
2022-09-14T07:28:55.856Z,71.26
2022-09-14T07:31:31.006Z,71.31
2022-09-14T07:34:00.862Z,69.94
2022-09-14T07:36:31.615Z,70.21
2022-09-14T07:39:01.928Z,69.22
2022-09-14T07:41:30.724Z,69.28
2022-09-14T07:44:00.765Z,69.99
2022-09-14T07:46:36.239Z,70.07
2022-09-14T07:49:03.661Z,68.64
2022-09-14T07:51:31.653Z,66.76
2022-09-14T07:54:01.091Z,66.47
2022-09-14T07:56:28.771Z,66.21
2022-09-14T07:59:11.398Z,64.83
2022-09-14T08:01:45.707Z,64.98
2022-09-14T08:04:12.696Z,64.47
2022-09-14T08:06:40.905Z,64.54
2022-09-14T08:09:11.199Z,65.14
2022-09-14T08:11:38.925Z,63.62
2022-09-14T08:14:10.449Z,63.66
2022-09-14T08:16:39.175Z,63.83
2022-09-14T08:19:11.124Z,63.80
2022-09-14T08:21:40.644Z,64.28
2022-09-14T08:24:13.313Z,63.85
2022-09-14T08:26:42.987Z,62.89
2022-09-14T08:29:09.900Z,62.37
2022-09-14T08:31:43.201Z,61.23
2022-09-14T08:34:10.357Z,62.54
2022-09-14T08:36:39.684Z,61.47
2022-09-14T08:39:09.755Z,62.98
2022-09-14T08:41:46.559Z,61.04
2022-09-14T08:44:26.022Z,60.50
2022-09-14T08:47:12.792Z,60.40
2022-09-14T08:49:54.140Z,59.68
2022-09-14T08:52:29.708Z,58.19
2022-09-14T08:54:59.401Z,57.94
2022-09-14T08:57:43.357Z,58.49
2022-09-14T09:00:15.550Z,57.01
2022-09-14T09:03:04.520Z,57.75
2022-09-14T09:05:52.069Z,57.05
2022-09-14T09:08:31.383Z,58.15
2022-09-14T09:11:00.936Z,58.62
2022-09-14T09:13:33.316Z,57.92
2022-09-14T09:16:07.218Z,57.64
2022-09-14T09:19:06.266Z,55.06
2022-09-14T09:21:39.425Z,56.43
2022-09-14T09:24:29.312Z,56.56
2022-09-14T09:26:56.593Z,57.06
2022-09-14T09:29:23.746Z,58.85
2022-09-14T09:31:58.122Z,58.71
2022-09-14T09:34:29.948Z,59.25
2022-09-14T09:36:57.252Z,59.30
2022-09-14T09:39:24.459Z,60.14
2022-09-14T09:42:15.068Z,56.29
2022-09-14T09:45:02.460Z,56.90
2022-09-14T09:47:32.875Z,58.61
2022-09-14T09:50:18.416Z,55.65
2022-09-14T09:52:57.841Z,55.67
2022-09-14T09:55:28.757Z,57.16
2022-09-14T09:57:55.669Z,57.89
2022-09-14T10:00:32.313Z,58.71
2022-09-14T10:03:02.826Z,56.84
2022-09-14T10:05:32.567Z,56.95
2022-09-14T10:08:08.073Z,55.42
2022-09-14T10:10:40.781Z,54.99
2022-09-14T10:13:26.504Z,54.59
2022-09-14T10:15:54.471Z,54.62
2022-09-14T10:18:22.761Z,53.32
2022-09-14T10:20:53.306Z,52.61
2022-09-14T10:23:20.271Z,53.93
2022-09-14T10:25:49.794Z,52.93
2022-09-14T10:28:28.714Z,52.69
2022-09-14T10:31:16.392Z,53.47
2022-09-14T10:33:43.567Z,53.87
2022-09-14T10:36:19.641Z,54.71
2022-09-14T10:38:58.806Z,54.89
2022-09-14T10:41:48.538Z,56.12
2022-09-14T10:44:34.516Z,56.09
2022-09-14T10:47:10.446Z,56.32
2022-09-14T10:50:00.402Z,54.72
2022-09-14T10:52:53.337Z,55.17
2022-09-14T10:56:04.143Z,54.05
2022-09-14T10:59:03.150Z,55.63
2022-09-14T11:01:49.048Z,53.00
2022-09-14T11:04:30.896Z,52.65
2022-09-14T11:07:13.462Z,51.48
2022-09-14T11:10:11.719Z,50.95
2022-09-14T11:12:49.993Z,50.63
2022-09-14T11:15:35.440Z,50.20
2022-09-14T11:18:23.285Z,51.09
2022-09-14T11:21:01.461Z,52.71
2022-09-14T11:23:46.641Z,49.62
2022-09-14T11:26:32.760Z,50.78
2022-09-14T11:29:33.258Z,51.98
2022-09-14T11:32:21.881Z,51.43
2022-09-14T11:34:56.323Z,49.38
2022-09-14T11:37:39.343Z,48.82
2022-09-14T11:40:24.478Z,50.18
2022-09-14T11:42:58.702Z,50.02
2022-09-14T11:45:37.398Z,48.11
2022-09-14T11:48:44.062Z,50.13
2022-09-14T11:51:24.514Z,47.80
2022-09-14T11:53:51.730Z,48.62
2022-09-14T11:56:27.224Z,46.61
2022-09-14T11:59:00.081Z,46.71
2022-09-14T12:01:38.798Z,46.41
2022-09-14T12:04:15.982Z,47.50
2022-09-14T12:06:44.651Z,46.73
2022-09-14T12:09:15.128Z,48.67
2022-09-14T12:11:43.833Z,47.34
2022-09-14T12:14:31.869Z,46.18
2022-09-14T12:17:40.526Z,46.19
2022-09-14T12:20:26.670Z,46.85
2022-09-14T12:23:15.218Z,47.31
2022-09-14T12:25:54.129Z,48.23
2022-09-14T12:28:51.083Z,46.95
2022-09-14T12:31:36.602Z,46.88
2022-09-14T12:34:20.492Z,46.93
2022-09-14T12:36:47.798Z,48.28
2022-09-14T12:39:33.150Z,47.94
2022-09-14T12:42:02.673Z,47.67
2022-09-14T12:44:41.659Z,47.71
2022-09-14T12:47:38.699Z,47.34
2022-09-14T12:50:29.568Z,47.85
2022-09-14T12:53:00.983Z,47.69
2022-09-14T12:55:54.063Z,48.00
2022-09-14T12:58:44.319Z,48.27
2022-09-14T13:01:28.399Z,49.12
2022-09-14T13:03:57.487Z,48.97
2022-09-14T13:06:33.028Z,48.36
2022-09-14T13:09:00.423Z,48.82
2022-09-14T13:11:39.332Z,48.63
2022-09-14T13:14:16.114Z,48.69
2022-09-14T13:16:49.772Z,48.96
2022-09-14T13:19:28.992Z,48.10
2022-09-14T13:21:58.863Z,48.46
2022-09-14T13:24:29.075Z,48.77
2022-09-14T13:27:00.098Z,49.09
2022-09-14T13:29:28.481Z,48.96
2022-09-14T13:32:02.430Z,49.62
2022-09-14T13:34:34.526Z,50.96
2022-09-14T13:37:02.444Z,48.88
2022-09-14T13:39:32.398Z,49.01
2022-09-14T13:41:59.876Z,49.58
2022-09-14T13:44:31.909Z,49.82
2022-09-14T13:47:01.723Z,49.91
2022-09-14T13:49:29.072Z,49.72
2022-09-14T13:52:31.036Z,48.35
2022-09-14T13:55:32.991Z,48.50
2022-09-14T13:58:12.158Z,49.44
2022-09-14T14:00:58.514Z,49.66
2022-09-14T14:03:30.105Z,49.83
2022-09-14T14:05:57.543Z,50.32
2022-09-14T14:08:27.520Z,50.50
2022-09-14T14:10:55.421Z,51.30
2022-09-14T14:13:32.006Z,49.72
2022-09-14T14:16:21.451Z,49.42
2022-09-14T14:18:57.065Z,48.92
2022-09-14T14:21:31.050Z,49.56
2022-09-14T14:24:18.965Z,50.15
2022-09-14T14:26:51.137Z,49.40
2022-09-14T14:29:18.397Z,50.27
2022-09-14T14:31:45.819Z,50.05
2022-09-14T14:34:25.198Z,49.55
2022-09-14T14:36:52.141Z,49.60
2022-09-14T14:39:21.863Z,50.75
2022-09-14T14:41:49.790Z,49.67
2022-09-14T14:44:20.603Z,50.71
2022-09-14T14:46:47.892Z,50.42
2022-09-14T14:49:17.455Z,50.58
2022-09-14T14:51:44.825Z,50.67
2022-09-14T14:54:12.322Z,50.48
2022-09-14T14:56:39.751Z,50.72
2022-09-14T14:59:36.292Z,50.78
2022-09-14T15:02:05.193Z,52.04
2022-09-14T15:04:32.465Z,52.46
2022-09-14T15:06:59.488Z,52.65
2022-09-14T15:09:29.883Z,53.54
2022-09-14T15:11:56.813Z,53.32
2022-09-14T15:14:27.204Z,55.06
2022-09-14T15:17:00.315Z,53.92
2022-09-14T15:19:28.669Z,54.75
2022-09-14T15:22:00.750Z,54.65
2022-09-14T15:24:28.226Z,54.88
2022-09-14T15:26:55.135Z,54.67
2022-09-14T15:29:22.069Z,56.17
2022-09-14T15:31:49.132Z,55.70
2022-09-14T15:34:16.161Z,56.06
2022-09-14T15:36:51.370Z,56.76
2022-09-14T15:39:21.444Z,56.89
2022-09-14T15:41:49.419Z,58.49
2022-09-14T15:44:17.120Z,58.13
2022-09-14T15:46:45.539Z,58.91
2022-09-14T15:49:15.222Z,58.04
2022-09-14T15:51:43.285Z,60.24
2022-09-14T15:54:10.499Z,59.86
2022-09-14T15:56:37.631Z,59.15
2022-09-14T15:59:05.441Z,60.65
2022-09-14T16:01:33.651Z,60.18
2022-09-14T16:04:03.945Z,62.26
2022-09-14T16:06:32.024Z,61.75
2022-09-14T16:09:02.279Z,62.41
2022-09-14T16:11:29.389Z,61.18
2022-09-14T16:13:56.374Z,62.32
2022-09-14T16:16:23.405Z,62.24
2022-09-14T16:18:50.765Z,63.13
2022-09-14T16:21:21.698Z,62.67
2022-09-14T16:23:51.678Z,62.76
2022-09-14T16:26:23.314Z,62.99
2022-09-14T16:28:52.409Z,63.17
2022-09-14T16:31:22.107Z,63.73
2022-09-14T16:33:51.705Z,63.64
2022-09-14T16:36:21.594Z,63.77
2022-09-14T16:38:51.555Z,63.63
2022-09-14T16:41:18.828Z,63.81
2022-09-14T16:43:45.761Z,65.10
2022-09-14T16:46:15.411Z,64.51
2022-09-14T16:48:44.697Z,65.15
2022-09-14T16:51:13.553Z,65.49
2022-09-14T16:53:45.849Z,65.49
2022-09-14T16:56:16.973Z,65.32
2022-09-14T16:58:45.190Z,65.97
2022-09-14T17:01:20.366Z,66.48
2022-09-14T17:03:49.373Z,66.47
2022-09-14T17:06:19.521Z,66.69
2022-09-14T17:08:47.545Z,67.26
2022-09-14T17:11:16.112Z,67.65
2022-09-14T17:13:44.776Z,67.60
2022-09-14T17:16:19.085Z,67.46
2022-09-14T17:18:49.060Z,67.58
2022-09-14T17:21:21.915Z,68.47
2022-09-14T17:23:49.862Z,67.97
2022-09-14T17:26:19.559Z,68.22
2022-09-14T17:28:49.874Z,67.95
2022-09-14T17:31:29.885Z,69.21
2022-09-14T17:33:58.990Z,68.58
2022-09-14T17:36:29.411Z,68.86
2022-09-14T17:38:59.319Z,68.18
2022-09-14T17:41:30.761Z,68.03
2022-09-14T17:44:01.685Z,68.64
2022-09-14T17:46:30.925Z,69.63
2022-09-14T17:48:59.642Z,68.46
2022-09-14T17:51:28.715Z,68.61
2022-09-14T17:53:57.328Z,68.79
2022-09-14T17:56:27.182Z,69.39
2022-09-14T17:59:00.697Z,69.02
2022-09-14T18:01:27.840Z,68.84
2022-09-14T18:03:58.539Z,69.67
2022-09-14T18:06:29.300Z,69.58
2022-09-14T18:09:01.290Z,69.43
2022-09-14T18:11:29.394Z,68.82
2022-09-14T18:13:56.534Z,70.43
2022-09-14T18:16:25.248Z,69.49
2022-09-14T18:18:54.315Z,70.70
2022-09-14T18:21:21.555Z,70.83
2022-09-14T18:23:50.427Z,70.95
2022-09-14T18:26:18.303Z,71.06
2022-09-14T18:28:45.855Z,70.94
2022-09-14T18:31:16.273Z,70.82
2022-09-14T18:33:48.641Z,71.10
2022-09-14T18:36:15.586Z,71.51
2022-09-14T18:38:43.142Z,71.63
2022-09-14T18:41:12.067Z,71.17
2022-09-14T18:43:43.520Z,71.38
2022-09-14T18:46:10.816Z,70.73
2022-09-14T18:48:39.089Z,71.64
2022-09-14T18:51:06.794Z,71.45
2022-09-14T18:53:34.239Z,72.15
2022-09-14T18:56:03.644Z,72.29
2022-09-14T18:58:37.954Z,72.55
2022-09-14T19:01:05.726Z,72.16
2022-09-14T19:03:33.036Z,72.70
2022-09-14T19:06:09.255Z,72.14
2022-09-14T19:08:36.938Z,72.18
2022-09-14T19:11:09.148Z,72.21
2022-09-14T19:13:36.555Z,72.73
2022-09-14T19:16:11.974Z,73.11
2022-09-14T19:18:39.338Z,72.31
2022-09-14T19:21:07.644Z,72.67
2022-09-14T19:23:35.661Z,72.44
2022-09-14T19:26:22.810Z,73.16
2022-09-14T19:28:49.794Z,73.54
2022-09-14T19:31:19.537Z,73.55
2022-09-14T19:33:46.591Z,73.66
2022-09-14T19:36:20.430Z,74.20
2022-09-14T19:38:49.068Z,73.92
2022-09-14T19:41:16.928Z,72.89
2022-09-14T19:43:44.199Z,73.96
2022-09-14T19:46:14.635Z,73.92
2022-09-14T19:48:42.492Z,73.38
2022-09-14T19:51:16.440Z,73.73
2022-09-14T19:53:45.801Z,73.09
2022-09-14T19:56:14.875Z,73.14
2022-09-14T19:58:48.145Z,73.39
2022-09-14T20:01:17.418Z,73.52
2022-09-14T20:03:45.592Z,73.68
2022-09-14T20:06:23.649Z,73.48
2022-09-14T20:08:53.974Z,74.11
2022-09-14T20:11:24.401Z,73.19
2022-09-14T20:13:54.572Z,73.56
2022-09-14T20:16:25.086Z,73.45
2022-09-14T20:18:52.567Z,73.29
2022-09-14T20:21:22.928Z,73.48
2022-09-14T20:24:15.036Z,73.80
2022-09-14T20:26:42.369Z,73.10
2022-09-14T20:29:09.586Z,74.06
2022-09-14T20:31:36.725Z,73.84
2022-09-14T20:34:04.018Z,74.21
2022-09-14T20:36:31.481Z,73.41
2022-09-14T20:38:59.764Z,72.86
2022-09-14T20:41:29.928Z,74.32
2022-09-14T20:43:58.085Z,73.42
2022-09-14T20:46:32.004Z,74.43
2022-09-14T20:48:59.253Z,73.84
2022-09-14T20:51:26.885Z,73.97
2022-09-14T20:53:54.262Z,74.09
2022-09-14T20:56:23.922Z,73.18
2022-09-14T20:58:54.572Z,73.57
2022-09-14T21:01:22.533Z,74.47
2022-09-14T21:03:50.866Z,73.45
2022-09-14T21:06:23.301Z,73.59
2022-09-14T21:08:50.922Z,73.15
2022-09-14T21:11:21.177Z,74.03
2022-09-14T21:13:48.756Z,73.62
2022-09-14T21:16:18.897Z,74.07
2022-09-14T21:18:48.191Z,73.31
2022-09-14T21:21:17.385Z,72.49
2022-09-14T21:23:44.687Z,72.92
2022-09-14T21:26:13.126Z,74.13
2022-09-14T21:28:41.372Z,74.52
2022-09-14T21:31:13.336Z,74.61
2022-09-14T21:33:42.451Z,74.61
2022-09-14T21:36:12.669Z,73.67
2022-09-14T21:38:39.857Z,73.61
2022-09-14T21:41:08.996Z,73.61
2022-09-14T21:43:40.693Z,74.06
2022-09-14T21:46:09.371Z,74.06
2022-09-14T21:48:37.849Z,74.07
2022-09-14T21:51:09.066Z,74.51
2022-09-14T21:53:36.010Z,74.11
2022-09-14T21:56:05.626Z,74.21
2022-09-14T21:58:33.047Z,73.82
2022-09-14T22:01:01.594Z,73.95
2022-09-14T22:03:29.549Z,73.38
2022-09-14T22:06:05.450Z,74.37
2022-09-14T22:08:33.780Z,73.70
2022-09-14T22:11:09.490Z,74.18
2022-09-14T22:13:36.804Z,74.21
2022-09-14T22:16:13.997Z,73.76
2022-09-14T22:18:42.755Z,73.88
2022-09-14T22:21:10.029Z,74.46
2022-09-14T22:23:36.988Z,74.17
2022-09-14T22:26:09.798Z,73.93
2022-09-14T22:28:40.350Z,73.40
2022-09-14T22:31:08.367Z,74.28
2022-09-14T22:33:36.582Z,74.13
2022-09-14T22:36:04.534Z,73.84
2022-09-14T22:38:34.455Z,74.77
2022-09-14T22:41:12.854Z,74.46
2022-09-14T22:43:41.174Z,73.83
2022-09-14T22:46:09.263Z,74.41
2022-09-14T22:48:37.588Z,74.12
2022-09-14T22:51:07.084Z,73.64
2022-09-14T22:53:35.241Z,73.36
2022-09-14T22:56:19.258Z,72.88
2022-09-14T22:58:47.886Z,73.92
2022-09-14T23:01:24.297Z,74.12
2022-09-14T23:03:56.470Z,74.84
2022-09-14T23:06:30.464Z,74.27
2022-09-14T23:08:58.440Z,74.22
2022-09-14T23:11:25.576Z,74.54
2022-09-14T23:13:53.714Z,74.00
2022-09-14T23:16:26.431Z,74.15
2022-09-14T23:18:55.263Z,74.09
2022-09-14T23:21:22.956Z,73.79
2022-09-14T23:23:54.784Z,74.60
2022-09-14T23:26:22.591Z,73.92
2022-09-14T23:28:58.264Z,74.50
2022-09-14T23:31:25.935Z,74.42
2022-09-14T23:33:54.926Z,74.76
2022-09-14T23:36:22.810Z,75.13
2022-09-14T23:38:50.463Z,74.90
2022-09-14T23:41:19.172Z,74.70
2022-09-14T23:43:46.620Z,74.26
2022-09-14T23:46:14.035Z,74.80
2022-09-14T23:48:41.061Z,74.27
2022-09-14T23:51:09.576Z,74.36
2022-09-14T23:53:37.466Z,74.69
2022-09-14T23:56:05.034Z,74.34
2022-09-14T23:58:32.462Z,74.45
